sensor_id;sensor_type;location;lat;lon;timestamp;temperature;humidity
4697;DHT22;2362;50.780;0.292;2023-05-14T00:01:51;10.20;99.90
4697;DHT22;2362;50.780;0.292;2023-05-14T00:04:16;10.20;99.90
4697;DHT22;2362;50.780;0.292;2023-05-14T00:06:44;10.20;99.90
4697;DHT22;2362;50.780;0.292;2023-05-14T00:09:11;10.20;99.90
4697;DHT22;2362;50.780;0.292;2023-05-14T00:11:36;10.20;99.90
4697;DHT22;2362;50.780;0.292;2023-05-14T00:14:02;10.20;99.90
4697;DHT22;2362;50.780;0.292;2023-05-14T00:16:28;10.10;99.90
4697;DHT22;2362;50.780;0.292;2023-05-14T00:18:53;10.10;99.90
4697;DHT22;2362;50.780;0.292;2023-05-14T00:21:19;10.10;99.90
4697;DHT22;2362;50.780;0.292;2023-05-14T00:23:45;10.00;99.90
4697;DHT22;2362;50.780;0.292;2023-05-14T00:26:13;10.00;99.90
4697;DHT22;2362;50.780;0.292;2023-05-14T00:28:38;10.00;99.90
4697;DHT22;2362;50.780;0.292;2023-05-14T00:31:04;10.10;99.90
4697;DHT22;2362;50.780;0.292;2023-05-14T00:33:29;10.30;99.90
4697;DHT22;2362;50.780;0.292;2023-05-14T00:35:55;10.30;99.90
4697;DHT22;2362;50.780;0.292;2023-05-14T00:38:21;10.40;99.90
4697;DHT22;2362;50.780;0.292;2023-05-14T00:40:48;10.50;99.90
4697;DHT22;2362;50.780;0.292;2023-05-14T00:43:20;10.50;99.90
4697;DHT22;2362;50.780;0.292;2023-05-14T00:45:49;10.50;99.90
4697;DHT22;2362;50.780;0.292;2023-05-14T00:48:14;10.50;99.90
4697;DHT22;2362;50.780;0.292;2023-05-14T00:50:41;10.60;99.90
4697;DHT22;2362;50.780;0.292;2023-05-14T00:53:06;10.60;99.90
4697;DHT22;2362;50.780;0.292;2023-05-14T00:55:40;10.60;99.90
4697;DHT22;2362;50.780;0.292;2023-05-14T00:58:10;10.60;99.90
4697;DHT22;2362;50.780;0.292;2023-05-14T01:00:37;10.60;99.90
4697;DHT22;2362;50.780;0.292;2023-05-14T01:03:04;10.60;99.90
4697;DHT22;2362;50.780;0.292;2023-05-14T01:08:28;10.60;99.90
4697;DHT22;2362;50.780;0.292;2023-05-14T01:11:04;10.60;99.90
4697;DHT22;2362;50.780;0.292;2023-05-14T01:13:46;10.60;99.90
4697;DHT22;2362;50.780;0.292;2023-05-14T01:16:17;10.60;99.90
4697;DHT22;2362;50.780;0.292;2023-05-14T01:18:45;10.60;99.90
4697;DHT22;2362;50.780;0.292;2023-05-14T01:21:23;10.60;99.90
4697;DHT22;2362;50.780;0.292;2023-05-14T01:23:49;10.60;99.90
4697;DHT22;2362;50.780;0.292;2023-05-14T01:26:14;10.60;99.90
4697;DHT22;2362;50.780;0.292;2023-05-14T01:28:40;10.50;99.90
4697;DHT22;2362;50.780;0.292;2023-05-14T01:31:12;10.50;99.90
4697;DHT22;2362;50.780;0.292;2023-05-14T01:33:43;10.50;99.90
4697;DHT22;2362;50.780;0.292;2023-05-14T01:36:09;10.50;99.90
4697;DHT22;2362;50.780;0.292;2023-05-14T01:38:35;10.40;99.90
4697;DHT22;2362;50.780;0.292;2023-05-14T01:41:02;10.40;99.90
4697;DHT22;2362;50.780;0.292;2023-05-14T01:43:28;10.40;99.90
4697;DHT22;2362;50.780;0.292;2023-05-14T01:45:55;10.40;99.90
4697;DHT22;2362;50.780;0.292;2023-05-14T01:48:21;10.40;99.90
4697;DHT22;2362;50.780;0.292;2023-05-14T01:50:47;10.40;99.90
4697;DHT22;2362;50.780;0.292;2023-05-14T01:53:12;10.40;99.90
4697;DHT22;2362;50.780;0.292;2023-05-14T01:55:38;10.40;99.90
4697;DHT22;2362;50.780;0.292;2023-05-14T01:58:04;10.40;99.90
4697;DHT22;2362;50.780;0.292;2023-05-14T02:00:31;10.30;99.90
4697;DHT22;2362;50.780;0.292;2023-05-14T02:02:56;10.30;99.90
4697;DHT22;2362;50.780;0.292;2023-05-14T02:05:22;10.40;99.90
4697;DHT22;2362;50.780;0.292;2023-05-14T02:07:47;10.40;99.90
4697;DHT22;2362;50.780;0.292;2023-05-14T02:10:13;10.50;99.90
4697;DHT22;2362;50.780;0.292;2023-05-14T02:12:39;10.40;99.90
4697;DHT22;2362;50.780;0.292;2023-05-14T02:15:05;10.40;99.90
4697;DHT22;2362;50.780;0.292;2023-05-14T02:17:33;10.40;99.90
4697;DHT22;2362;50.780;0.292;2023-05-14T02:19:58;10.40;99.90
4697;DHT22;2362;50.780;0.292;2023-05-14T02:22:24;10.40;99.90
4697;DHT22;2362;50.780;0.292;2023-05-14T02:24:50;10.40;99.90
4697;DHT22;2362;50.780;0.292;2023-05-14T02:27:15;10.30;99.90
4697;DHT22;2362;50.780;0.292;2023-05-14T02:29:41;10.30;99.90
4697;DHT22;2362;50.780;0.292;2023-05-14T02:32:09;10.30;99.90
4697;DHT22;2362;50.780;0.292;2023-05-14T02:34:34;10.40;99.90
4697;DHT22;2362;50.780;0.292;2023-05-14T02:37:00;10.40;99.90
4697;DHT22;2362;50.780;0.292;2023-05-14T02:39:26;10.40;99.90
4697;DHT22;2362;50.780;0.292;2023-05-14T02:41:51;10.40;99.90
4697;DHT22;2362;50.780;0.292;2023-05-14T02:44:17;10.40;99.90
4697;DHT22;2362;50.780;0.292;2023-05-14T02:46:42;10.40;99.90
4697;DHT22;2362;50.780;0.292;2023-05-14T02:49:08;10.50;99.90
4697;DHT22;2362;50.780;0.292;2023-05-14T02:51:34;10.40;99.90
4697;DHT22;2362;50.780;0.292;2023-05-14T02:53:59;10.40;99.90
4697;DHT22;2362;50.780;0.292;2023-05-14T02:56:25;10.40;99.90
4697;DHT22;2362;50.780;0.292;2023-05-14T02:58:51;10.40;99.90
4697;DHT22;2362;50.780;0.292;2023-05-14T03:01:18;10.30;99.90
4697;DHT22;2362;50.780;0.292;2023-05-14T03:03:43;10.30;99.90
4697;DHT22;2362;50.780;0.292;2023-05-14T03:06:09;10.30;99.90
4697;DHT22;2362;50.780;0.292;2023-05-14T03:08:35;10.30;99.90
4697;DHT22;2362;50.780;0.292;2023-05-14T03:11:01;10.30;99.90
4697;DHT22;2362;50.780;0.292;2023-05-14T03:13:26;10.30;99.90
4697;DHT22;2362;50.780;0.292;2023-05-14T03:15:52;10.30;99.90
4697;DHT22;2362;50.780;0.292;2023-05-14T03:18:19;10.30;99.90
4697;DHT22;2362;50.780;0.292;2023-05-14T03:20:45;10.30;99.90
4697;DHT22;2362;50.780;0.292;2023-05-14T03:23:11;10.30;99.90
4697;DHT22;2362;50.780;0.292;2023-05-14T03:25:37;10.30;99.90
4697;DHT22;2362;50.780;0.292;2023-05-14T03:28:02;10.30;99.90
4697;DHT22;2362;50.780;0.292;2023-05-14T03:30:28;10.30;99.90
4697;DHT22;2362;50.780;0.292;2023-05-14T03:32:58;10.20;99.90
4697;DHT22;2362;50.780;0.292;2023-05-14T03:35:24;10.10;99.90
4697;DHT22;2362;50.780;0.292;2023-05-14T03:37:49;10.10;99.90
4697;DHT22;2362;50.780;0.292;2023-05-14T03:40:17;10.10;99.90
4697;DHT22;2362;50.780;0.292;2023-05-14T03:42:42;10.10;99.90
4697;DHT22;2362;50.780;0.292;2023-05-14T03:45:08;10.10;99.90
4697;DHT22;2362;50.780;0.292;2023-05-14T03:47:34;10.10;99.90
4697;DHT22;2362;50.780;0.292;2023-05-14T03:50:00;10.10;99.90
4697;DHT22;2362;50.780;0.292;2023-05-14T03:52:25;10.10;99.90
4697;DHT22;2362;50.780;0.292;2023-05-14T03:54:51;10.00;99.90
4697;DHT22;2362;50.780;0.292;2023-05-14T03:57:17;9.90;99.90
4697;DHT22;2362;50.780;0.292;2023-05-14T03:59:42;9.90;99.90
4697;DHT22;2362;50.780;0.292;2023-05-14T04:02:08;9.90;99.90
4697;DHT22;2362;50.780;0.292;2023-05-14T04:04:37;9.90;99.90
4697;DHT22;2362;50.780;0.292;2023-05-14T04:07:03;9.90;99.90
4697;DHT22;2362;50.780;0.292;2023-05-14T04:09:28;9.90;99.90
4697;DHT22;2362;50.780;0.292;2023-05-14T04:11:54;9.90;99.90
4697;DHT22;2362;50.780;0.292;2023-05-14T04:14:20;9.90;99.90
4697;DHT22;2362;50.780;0.292;2023-05-14T04:16:45;9.90;99.90
4697;DHT22;2362;50.780;0.292;2023-05-14T04:19:11;9.90;99.90
4697;DHT22;2362;50.780;0.292;2023-05-14T04:21:37;9.90;99.90
4697;DHT22;2362;50.780;0.292;2023-05-14T04:24:03;9.90;99.90
4697;DHT22;2362;50.780;0.292;2023-05-14T04:26:29;9.80;99.90
4697;DHT22;2362;50.780;0.292;2023-05-14T04:28:54;9.80;99.90
4697;DHT22;2362;50.780;0.292;2023-05-14T04:31:20;9.80;99.90
4697;DHT22;2362;50.780;0.292;2023-05-14T04:34:11;9.70;99.90
4697;DHT22;2362;50.780;0.292;2023-05-14T04:37:03;9.80;99.90
4697;DHT22;2362;50.780;0.292;2023-05-14T04:39:53;9.90;99.90
4697;DHT22;2362;50.780;0.292;2023-05-14T04:42:44;9.80;99.90
4697;DHT22;2362;50.780;0.292;2023-05-14T04:45:10;9.80;99.90
4697;DHT22;2362;50.780;0.292;2023-05-14T04:47:37;9.80;99.90
4697;DHT22;2362;50.780;0.292;2023-05-14T04:50:04;9.80;99.90
4697;DHT22;2362;50.780;0.292;2023-05-14T04:52:32;9.80;99.90
4697;DHT22;2362;50.780;0.292;2023-05-14T04:54:57;9.80;99.90
4697;DHT22;2362;50.780;0.292;2023-05-14T04:57:23;9.80;99.90
4697;DHT22;2362;50.780;0.292;2023-05-14T04:59:49;9.90;99.90
4697;DHT22;2362;50.780;0.292;2023-05-14T05:02:14;9.90;99.90
4697;DHT22;2362;50.780;0.292;2023-05-14T05:04:40;9.90;99.90
4697;DHT22;2362;50.780;0.292;2023-05-14T05:07:30;9.80;99.90
4697;DHT22;2362;50.780;0.292;2023-05-14T05:09:56;9.90;99.90
4697;DHT22;2362;50.780;0.292;2023-05-14T05:12:22;9.80;99.90
4697;DHT22;2362;50.780;0.292;2023-05-14T05:14:47;9.80;99.90
4697;DHT22;2362;50.780;0.292;2023-05-14T05:17:13;9.80;99.90
4697;DHT22;2362;50.780;0.292;2023-05-14T05:19:39;9.90;99.90
4697;DHT22;2362;50.780;0.292;2023-05-14T05:22:05;9.90;99.90
4697;DHT22;2362;50.780;0.292;2023-05-14T05:24:30;9.90;99.90
4697;DHT22;2362;50.780;0.292;2023-05-14T05:26:56;9.90;99.90
4697;DHT22;2362;50.780;0.292;2023-05-14T05:29:23;9.80;99.90
4697;DHT22;2362;50.780;0.292;2023-05-14T05:31:49;9.80;99.90
4697;DHT22;2362;50.780;0.292;2023-05-14T05:34:14;9.90;99.90
4697;DHT22;2362;50.780;0.292;2023-05-14T05:36:40;9.80;99.90
4697;DHT22;2362;50.780;0.292;2023-05-14T05:39:06;9.90;99.90
4697;DHT22;2362;50.780;0.292;2023-05-14T05:41:31;9.90;99.90
4697;DHT22;2362;50.780;0.292;2023-05-14T05:43:57;9.90;99.90
4697;DHT22;2362;50.780;0.292;2023-05-14T05:46:23;10.00;99.90
4697;DHT22;2362;50.780;0.292;2023-05-14T05:48:48;9.90;99.90
4697;DHT22;2362;50.780;0.292;2023-05-14T05:51:14;9.90;99.90
4697;DHT22;2362;50.780;0.292;2023-05-14T05:53:39;9.90;99.90
4697;DHT22;2362;50.780;0.292;2023-05-14T05:56:05;9.90;99.90
4697;DHT22;2362;50.780;0.292;2023-05-14T05:58:31;9.80;99.90
4697;DHT22;2362;50.780;0.292;2023-05-14T06:00:57;9.70;99.90
4697;DHT22;2362;50.780;0.292;2023-05-14T06:03:23;9.70;99.90
4697;DHT22;2362;50.780;0.292;2023-05-14T06:05:49;9.70;99.90
4697;DHT22;2362;50.780;0.292;2023-05-14T06:08:15;9.80;99.90
4697;DHT22;2362;50.780;0.292;2023-05-14T06:10:40;9.90;99.90
4697;DHT22;2362;50.780;0.292;2023-05-14T06:13:10;10.00;99.90
4697;DHT22;2362;50.780;0.292;2023-05-14T06:15:35;9.90;99.90
4697;DHT22;2362;50.780;0.292;2023-05-14T06:18:01;10.00;99.90
4697;DHT22;2362;50.780;0.292;2023-05-14T06:20:27;10.10;99.90
4697;DHT22;2362;50.780;0.292;2023-05-14T06:22:52;10.10;99.90
4697;DHT22;2362;50.780;0.292;2023-05-14T06:25:18;10.10;99.90
4697;DHT22;2362;50.780;0.292;2023-05-14T06:27:44;10.20;99.90
4697;DHT22;2362;50.780;0.292;2023-05-14T06:30:10;10.20;99.90
4697;DHT22;2362;50.780;0.292;2023-05-14T06:32:36;10.30;99.90
4697;DHT22;2362;50.780;0.292;2023-05-14T06:35:02;10.40;99.90
4697;DHT22;2362;50.780;0.292;2023-05-14T06:37:28;10.50;99.90
4697;DHT22;2362;50.780;0.292;2023-05-14T06:39:54;10.60;99.90
4697;DHT22;2362;50.780;0.292;2023-05-14T06:42:44;10.60;99.90
4697;DHT22;2362;50.780;0.292;2023-05-14T06:45:35;10.80;99.90
4697;DHT22;2362;50.780;0.292;2023-05-14T06:48:26;10.80;99.90
4697;DHT22;2362;50.780;0.292;2023-05-14T06:50:57;10.80;99.90
4697;DHT22;2362;50.780;0.292;2023-05-14T06:53:23;10.70;99.90
4697;DHT22;2362;50.780;0.292;2023-05-14T06:55:48;10.60;99.90
4697;DHT22;2362;50.780;0.292;2023-05-14T06:58:15;10.60;99.90
4697;DHT22;2362;50.780;0.292;2023-05-14T07:00:41;10.70;99.90
4697;DHT22;2362;50.780;0.292;2023-05-14T07:03:06;10.80;99.90
4697;DHT22;2362;50.780;0.292;2023-05-14T07:05:32;11.00;99.90
4697;DHT22;2362;50.780;0.292;2023-05-14T07:07:58;11.10;99.90
4697;DHT22;2362;50.780;0.292;2023-05-14T07:10:23;11.20;99.90
4697;DHT22;2362;50.780;0.292;2023-05-14T07:12:49;11.20;99.90
4697;DHT22;2362;50.780;0.292;2023-05-14T07:15:15;11.10;99.90
4697;DHT22;2362;50.780;0.292;2023-05-14T07:17:41;11.00;99.90
4697;DHT22;2362;50.780;0.292;2023-05-14T07:20:07;11.00;99.90
4697;DHT22;2362;50.780;0.292;2023-05-14T07:22:58;11.10;99.90
4697;DHT22;2362;50.780;0.292;2023-05-14T07:25:23;11.30;99.90
4697;DHT22;2362;50.780;0.292;2023-05-14T07:27:49;11.30;99.90
4697;DHT22;2362;50.780;0.292;2023-05-14T07:30:15;11.30;99.90
4697;DHT22;2362;50.780;0.292;2023-05-14T07:32:40;11.20;99.90
4697;DHT22;2362;50.780;0.292;2023-05-14T07:35:07;11.10;99.90
4697;DHT22;2362;50.780;0.292;2023-05-14T07:37:33;11.10;99.90
4697;DHT22;2362;50.780;0.292;2023-05-14T07:39:59;11.20;99.90
4697;DHT22;2362;50.780;0.292;2023-05-14T07:42:25;11.40;99.90
4697;DHT22;2362;50.780;0.292;2023-05-14T07:44:51;11.60;99.90
4697;DHT22;2362;50.780;0.292;2023-05-14T07:47:17;11.80;99.90
4697;DHT22;2362;50.780;0.292;2023-05-14T07:49:42;12.10;99.90
4697;DHT22;2362;50.780;0.292;2023-05-14T07:52:08;12.10;99.90
4697;DHT22;2362;50.780;0.292;2023-05-14T07:54:34;12.00;99.90
4697;DHT22;2362;50.780;0.292;2023-05-14T07:57:01;12.20;99.90
4697;DHT22;2362;50.780;0.292;2023-05-14T07:59:27;12.50;99.90
4697;DHT22;2362;50.780;0.292;2023-05-14T08:01:52;12.50;99.90
4697;DHT22;2362;50.780;0.292;2023-05-14T08:04:18;12.60;99.90
4697;DHT22;2362;50.780;0.292;2023-05-14T08:06:44;12.50;99.90
4697;DHT22;2362;50.780;0.292;2023-05-14T08:09:09;12.50;99.90
4697;DHT22;2362;50.780;0.292;2023-05-14T08:11:35;12.70;99.90
4697;DHT22;2362;50.780;0.292;2023-05-14T08:14:01;12.80;99.90
4697;DHT22;2362;50.780;0.292;2023-05-14T08:16:26;12.60;99.90
4697;DHT22;2362;50.780;0.292;2023-05-14T08:18:52;12.80;99.90
4697;DHT22;2362;50.780;0.292;2023-05-14T08:21:17;12.90;99.90
4697;DHT22;2362;50.780;0.292;2023-05-14T08:23:43;13.10;99.90
4697;DHT22;2362;50.780;0.292;2023-05-14T08:26:09;13.10;99.90
4697;DHT22;2362;50.780;0.292;2023-05-14T08:28:34;13.00;99.90
4697;DHT22;2362;50.780;0.292;2023-05-14T08:31:00;13.10;99.90
4697;DHT22;2362;50.780;0.292;2023-05-14T08:33:26;13.30;99.90
4697;DHT22;2362;50.780;0.292;2023-05-14T08:35:52;13.40;99.90
4697;DHT22;2362;50.780;0.292;2023-05-14T08:38:18;13.50;99.90
4697;DHT22;2362;50.780;0.292;2023-05-14T08:40:55;13.70;99.90
4697;DHT22;2362;50.780;0.292;2023-05-14T08:43:25;13.50;99.90
4697;DHT22;2362;50.780;0.292;2023-05-14T08:45:59;13.40;99.90
4697;DHT22;2362;50.780;0.292;2023-05-14T08:48:30;13.20;99.90
4697;DHT22;2362;50.780;0.292;2023-05-14T08:50:56;13.10;99.90
4697;DHT22;2362;50.780;0.292;2023-05-14T08:53:22;12.90;99.90
4697;DHT22;2362;50.780;0.292;2023-05-14T08:55:50;13.10;99.90
4697;DHT22;2362;50.780;0.292;2023-05-14T08:58:15;13.10;99.90
4697;DHT22;2362;50.780;0.292;2023-05-14T09:00:42;13.40;99.90
4697;DHT22;2362;50.780;0.292;2023-05-14T09:03:08;13.70;99.90
4697;DHT22;2362;50.780;0.292;2023-05-14T09:05:34;13.70;99.90
4697;DHT22;2362;50.780;0.292;2023-05-14T09:08:00;13.70;99.90
4697;DHT22;2362;50.780;0.292;2023-05-14T09:10:26;13.60;99.90
4697;DHT22;2362;50.780;0.292;2023-05-14T09:12:51;13.60;99.90
4697;DHT22;2362;50.780;0.292;2023-05-14T09:15:17;14.20;99.90
4697;DHT22;2362;50.780;0.292;2023-05-14T09:17:43;14.40;99.90
4697;DHT22;2362;50.780;0.292;2023-05-14T09:20:12;14.50;99.90
4697;DHT22;2362;50.780;0.292;2023-05-14T09:22:38;14.40;99.90
4697;DHT22;2362;50.780;0.292;2023-05-14T09:25:08;14.50;99.90
4697;DHT22;2362;50.780;0.292;2023-05-14T09:27:35;14.70;99.90
4697;DHT22;2362;50.780;0.292;2023-05-14T09:30:11;14.70;99.90
4697;DHT22;2362;50.780;0.292;2023-05-14T09:32:39;15.10;99.90
4697;DHT22;2362;50.780;0.292;2023-05-14T09:35:19;15.00;99.90
4697;DHT22;2362;50.780;0.292;2023-05-14T09:37:48;14.80;99.90
4697;DHT22;2362;50.780;0.292;2023-05-14T09:40:14;14.90;99.90
4697;DHT22;2362;50.780;0.292;2023-05-14T09:42:40;15.00;99.90
4697;DHT22;2362;50.780;0.292;2023-05-14T09:45:10;15.30;99.90
4697;DHT22;2362;50.780;0.292;2023-05-14T09:47:37;15.40;99.90
4697;DHT22;2362;50.780;0.292;2023-05-14T09:50:03;15.20;99.90
4697;DHT22;2362;50.780;0.292;2023-05-14T09:52:29;15.60;99.90
4697;DHT22;2362;50.780;0.292;2023-05-14T09:54:55;15.80;99.90
4697;DHT22;2362;50.780;0.292;2023-05-14T09:57:21;15.90;99.90
4697;DHT22;2362;50.780;0.292;2023-05-14T09:59:47;15.90;99.90
4697;DHT22;2362;50.780;0.292;2023-05-14T10:02:22;15.30;99.90
4697;DHT22;2362;50.780;0.292;2023-05-14T10:04:50;15.00;99.90
4697;DHT22;2362;50.780;0.292;2023-05-14T10:07:21;15.20;99.90
4697;DHT22;2362;50.780;0.292;2023-05-14T10:09:50;15.30;99.90
4697;DHT22;2362;50.780;0.292;2023-05-14T10:12:20;15.30;99.90
4697;DHT22;2362;50.780;0.292;2023-05-14T10:14:47;15.10;99.90
4697;DHT22;2362;50.780;0.292;2023-05-14T10:17:16;15.10;99.90
4697;DHT22;2362;50.780;0.292;2023-05-14T10:19:51;15.20;99.90
4697;DHT22;2362;50.780;0.292;2023-05-14T10:22:21;14.80;99.90
4697;DHT22;2362;50.780;0.292;2023-05-14T10:24:48;15.20;99.90
4697;DHT22;2362;50.780;0.292;2023-05-14T10:27:21;15.50;99.90
4697;DHT22;2362;50.780;0.292;2023-05-14T10:29:51;15.80;99.90
4697;DHT22;2362;50.780;0.292;2023-05-14T10:32:21;15.90;99.90
4697;DHT22;2362;50.780;0.292;2023-05-14T10:34:47;16.10;99.90
4697;DHT22;2362;50.780;0.292;2023-05-14T10:37:24;15.90;99.90
4697;DHT22;2362;50.780;0.292;2023-05-14T10:39:57;16.10;99.90
4697;DHT22;2362;50.780;0.292;2023-05-14T10:42:26;15.40;99.90
4697;DHT22;2362;50.780;0.292;2023-05-14T10:44:56;15.30;99.90
4697;DHT22;2362;50.780;0.292;2023-05-14T10:47:30;15.30;99.90
4697;DHT22;2362;50.780;0.292;2023-05-14T10:49:58;15.00;99.90
4697;DHT22;2362;50.780;0.292;2023-05-14T10:52:25;15.20;99.90
4697;DHT22;2362;50.780;0.292;2023-05-14T10:54:59;15.20;99.90
4697;DHT22;2362;50.780;0.292;2023-05-14T10:57:27;15.40;99.90
4697;DHT22;2362;50.780;0.292;2023-05-14T10:59:58;15.60;99.90
4697;DHT22;2362;50.780;0.292;2023-05-14T11:02:30;15.40;99.90
4697;DHT22;2362;50.780;0.292;2023-05-14T11:05:10;15.40;99.90
4697;DHT22;2362;50.780;0.292;2023-05-14T11:08:05;15.90;99.90
4697;DHT22;2362;50.780;0.292;2023-05-14T11:10:32;16.10;99.90
4697;DHT22;2362;50.780;0.292;2023-05-14T11:12:58;15.70;99.90
4697;DHT22;2362;50.780;0.292;2023-05-14T11:15:25;15.70;99.90
4697;DHT22;2362;50.780;0.292;2023-05-14T11:17:51;16.10;99.90
4697;DHT22;2362;50.780;0.292;2023-05-14T11:20:18;16.10;99.90
4697;DHT22;2362;50.780;0.292;2023-05-14T11:22:45;16.10;99.90
4697;DHT22;2362;50.780;0.292;2023-05-14T11:25:13;16.10;99.90
4697;DHT22;2362;50.780;0.292;2023-05-14T11:27:40;16.20;99.90
4697;DHT22;2362;50.780;0.292;2023-05-14T11:30:18;16.20;99.90
4697;DHT22;2362;50.780;0.292;2023-05-14T11:32:46;16.20;99.90
4697;DHT22;2362;50.780;0.292;2023-05-14T11:35:12;15.90;99.90
4697;DHT22;2362;50.780;0.292;2023-05-14T11:37:38;15.30;99.90
4697;DHT22;2362;50.780;0.292;2023-05-14T11:40:07;15.00;99.90
4697;DHT22;2362;50.780;0.292;2023-05-14T11:42:37;14.70;99.90
4697;DHT22;2362;50.780;0.292;2023-05-14T11:45:03;14.90;99.90
4697;DHT22;2362;50.780;0.292;2023-05-14T11:47:29;15.10;99.90
4697;DHT22;2362;50.780;0.292;2023-05-14T11:49:56;15.10;99.90
4697;DHT22;2362;50.780;0.292;2023-05-14T11:52:21;15.10;99.90
4697;DHT22;2362;50.780;0.292;2023-05-14T11:54:47;15.10;99.90
4697;DHT22;2362;50.780;0.292;2023-05-14T11:57:18;15.30;99.90
4697;DHT22;2362;50.780;0.292;2023-05-14T11:59:44;15.30;99.90
4697;DHT22;2362;50.780;0.292;2023-05-14T12:02:14;15.30;99.90
4697;DHT22;2362;50.780;0.292;2023-05-14T12:04:42;15.20;99.90
4697;DHT22;2362;50.780;0.292;2023-05-14T12:07:09;15.30;99.90
4697;DHT22;2362;50.780;0.292;2023-05-14T12:09:47;15.50;99.90
4697;DHT22;2362;50.780;0.292;2023-05-14T12:12:21;15.40;99.90
4697;DHT22;2362;50.780;0.292;2023-05-14T12:14:48;15.20;99.90
4697;DHT22;2362;50.780;0.292;2023-05-14T12:17:19;15.20;99.90
4697;DHT22;2362;50.780;0.292;2023-05-14T12:19:47;15.10;99.90
4697;DHT22;2362;50.780;0.292;2023-05-14T12:22:15;15.10;99.90
4697;DHT22;2362;50.780;0.292;2023-05-14T12:24:42;15.10;99.90
4697;DHT22;2362;50.780;0.292;2023-05-14T12:27:09;15.10;99.90
4697;DHT22;2362;50.780;0.292;2023-05-14T12:29:38;15.10;99.90
4697;DHT22;2362;50.780;0.292;2023-05-14T12:32:07;15.20;99.90
4697;DHT22;2362;50.780;0.292;2023-05-14T12:34:34;15.20;99.90
4697;DHT22;2362;50.780;0.292;2023-05-14T12:37:00;15.30;99.90
4697;DHT22;2362;50.780;0.292;2023-05-14T12:39:26;15.40;99.90
4697;DHT22;2362;50.780;0.292;2023-05-14T12:41:51;15.50;99.90
4697;DHT22;2362;50.780;0.292;2023-05-14T12:44:18;15.40;99.90
4697;DHT22;2362;50.780;0.292;2023-05-14T12:46:46;15.50;99.90
4697;DHT22;2362;50.780;0.292;2023-05-14T12:49:12;15.50;99.90
4697;DHT22;2362;50.780;0.292;2023-05-14T12:51:38;15.30;99.90
4697;DHT22;2362;50.780;0.292;2023-05-14T12:54:03;15.30;99.90
4697;DHT22;2362;50.780;0.292;2023-05-14T12:56:29;15.40;99.90
4697;DHT22;2362;50.780;0.292;2023-05-14T12:58:56;15.40;99.90
4697;DHT22;2362;50.780;0.292;2023-05-14T13:01:22;15.40;99.90
4697;DHT22;2362;50.780;0.292;2023-05-14T13:03:48;15.30;99.90
4697;DHT22;2362;50.780;0.292;2023-05-14T13:06:14;15.30;99.90
4697;DHT22;2362;50.780;0.292;2023-05-14T13:08:40;15.40;99.90
4697;DHT22;2362;50.780;0.292;2023-05-14T13:11:06;15.40;99.90
4697;DHT22;2362;50.780;0.292;2023-05-14T13:13:32;15.30;99.90
4697;DHT22;2362;50.780;0.292;2023-05-14T13:16:26;15.30;99.90
4697;DHT22;2362;50.780;0.292;2023-05-14T13:18:52;14.80;99.90
4697;DHT22;2362;50.780;0.292;2023-05-14T13:21:17;14.60;99.90
4697;DHT22;2362;50.780;0.292;2023-05-14T13:23:43;14.60;99.90
4697;DHT22;2362;50.780;0.292;2023-05-14T13:26:09;14.80;99.90
4697;DHT22;2362;50.780;0.292;2023-05-14T13:28:35;15.00;99.90
4697;DHT22;2362;50.780;0.292;2023-05-14T13:31:06;15.10;99.90
4697;DHT22;2362;50.780;0.292;2023-05-14T13:33:33;15.10;99.90
4697;DHT22;2362;50.780;0.292;2023-05-14T13:35:59;15.20;99.90
4697;DHT22;2362;50.780;0.292;2023-05-14T13:38:25;15.20;99.90
4697;DHT22;2362;50.780;0.292;2023-05-14T13:40:50;15.20;99.90
4697;DHT22;2362;50.780;0.292;2023-05-14T13:43:16;15.20;99.90
4697;DHT22;2362;50.780;0.292;2023-05-14T13:45:42;15.10;99.90
4697;DHT22;2362;50.780;0.292;2023-05-14T13:48:07;15.20;99.90
4697;DHT22;2362;50.780;0.292;2023-05-14T13:50:33;15.10;99.90
4697;DHT22;2362;50.780;0.292;2023-05-14T13:52:58;14.90;99.90
4697;DHT22;2362;50.780;0.292;2023-05-14T13:55:24;14.90;99.90
4697;DHT22;2362;50.780;0.292;2023-05-14T13:57:50;14.60;99.90
4697;DHT22;2362;50.780;0.292;2023-05-14T14:00:16;14.70;99.90
4697;DHT22;2362;50.780;0.292;2023-05-14T14:02:41;14.90;99.90
4697;DHT22;2362;50.780;0.292;2023-05-14T14:05:07;15.10;99.90
4697;DHT22;2362;50.780;0.292;2023-05-14T14:07:33;15.20;99.90
4697;DHT22;2362;50.780;0.292;2023-05-14T14:09:59;15.20;99.90
4697;DHT22;2362;50.780;0.292;2023-05-14T14:12:26;15.10;99.90
4697;DHT22;2362;50.780;0.292;2023-05-14T14:14:51;15.20;99.90
4697;DHT22;2362;50.780;0.292;2023-05-14T14:17:42;15.30;99.90
4697;DHT22;2362;50.780;0.292;2023-05-14T14:20:33;15.20;99.90
4697;DHT22;2362;50.780;0.292;2023-05-14T14:23:00;15.10;99.90
4697;DHT22;2362;50.780;0.292;2023-05-14T14:25:26;15.10;99.90
4697;DHT22;2362;50.780;0.292;2023-05-14T14:27:52;15.10;99.90
4697;DHT22;2362;50.780;0.292;2023-05-14T14:30:17;15.20;99.90
4697;DHT22;2362;50.780;0.292;2023-05-14T14:32:47;15.10;99.90
4697;DHT22;2362;50.780;0.292;2023-05-14T14:35:15;15.10;99.90
4697;DHT22;2362;50.780;0.292;2023-05-14T14:37:41;15.30;99.90
4697;DHT22;2362;50.780;0.292;2023-05-14T14:40:10;15.30;99.90
4697;DHT22;2362;50.780;0.292;2023-05-14T14:42:36;15.40;99.90
4697;DHT22;2362;50.780;0.292;2023-05-14T14:45:03;15.50;99.90
4697;DHT22;2362;50.780;0.292;2023-05-14T14:47:29;15.60;99.90
4697;DHT22;2362;50.780;0.292;2023-05-14T14:50:20;15.70;99.90
4697;DHT22;2362;50.780;0.292;2023-05-14T14:53:13;15.80;99.90
4697;DHT22;2362;50.780;0.292;2023-05-14T14:55:39;15.80;99.90
4697;DHT22;2362;50.780;0.292;2023-05-14T14:58:05;15.70;99.90
4697;DHT22;2362;50.780;0.292;2023-05-14T15:00:30;15.60;99.90
4697;DHT22;2362;50.780;0.292;2023-05-14T15:02:56;15.60;99.90
4697;DHT22;2362;50.780;0.292;2023-05-14T15:05:22;15.80;99.90
4697;DHT22;2362;50.780;0.292;2023-05-14T15:07:47;15.90;99.90
4697;DHT22;2362;50.780;0.292;2023-05-14T15:10:13;15.90;99.90
4697;DHT22;2362;50.780;0.292;2023-05-14T15:12:39;15.90;99.90
4697;DHT22;2362;50.780;0.292;2023-05-14T15:15:05;15.90;99.90
4697;DHT22;2362;50.780;0.292;2023-05-14T15:17:31;15.90;99.90
4697;DHT22;2362;50.780;0.292;2023-05-14T15:19:56;16.00;99.90
4697;DHT22;2362;50.780;0.292;2023-05-14T15:22:22;15.90;99.90
4697;DHT22;2362;50.780;0.292;2023-05-14T15:24:48;15.90;99.90
4697;DHT22;2362;50.780;0.292;2023-05-14T15:27:14;15.90;99.90
4697;DHT22;2362;50.780;0.292;2023-05-14T15:29:40;15.90;99.90
4697;DHT22;2362;50.780;0.292;2023-05-14T15:32:06;15.80;99.90
4697;DHT22;2362;50.780;0.292;2023-05-14T15:34:32;15.80;99.90
4697;DHT22;2362;50.780;0.292;2023-05-14T15:36:57;15.80;99.90
4697;DHT22;2362;50.780;0.292;2023-05-14T15:39:23;15.80;99.90
4697;DHT22;2362;50.780;0.292;2023-05-14T15:41:49;15.80;99.90
4697;DHT22;2362;50.780;0.292;2023-05-14T15:44:14;15.60;99.90
4697;DHT22;2362;50.780;0.292;2023-05-14T15:46:40;15.40;99.90
4697;DHT22;2362;50.780;0.292;2023-05-14T15:49:06;15.30;99.90
4697;DHT22;2362;50.780;0.292;2023-05-14T15:51:31;15.30;99.90
4697;DHT22;2362;50.780;0.292;2023-05-14T15:54:22;15.30;99.90
4697;DHT22;2362;50.780;0.292;2023-05-14T15:56:50;15.20;99.90
4697;DHT22;2362;50.780;0.292;2023-05-14T15:59:16;15.30;99.90
4697;DHT22;2362;50.780;0.292;2023-05-14T16:01:42;15.30;99.90
4697;DHT22;2362;50.780;0.292;2023-05-14T16:04:08;15.20;99.90
4697;DHT22;2362;50.780;0.292;2023-05-14T16:06:34;15.30;99.90
4697;DHT22;2362;50.780;0.292;2023-05-14T16:09:00;15.30;99.90
4697;DHT22;2362;50.780;0.292;2023-05-14T16:11:27;15.40;99.90